createdAt,value
2017-03-15T04:00:45.367Z,68.08
2017-03-15T04:01:10.952Z,68.18
2017-03-15T04:01:36.521Z,68.18
2017-03-15T04:02:02.966Z,68.28
2017-03-15T04:02:28.519Z,68.05
2017-03-15T04:02:54.190Z,68.28
2017-03-15T04:03:19.748Z,68.15
2017-03-15T04:03:45.431Z,68.15
2017-03-15T04:04:10.976Z,68.28
2017-03-15T04:04:36.562Z,68.08
2017-03-15T04:05:02.127Z,68.18
2017-03-15T04:05:27.831Z,68.05
2017-03-15T04:05:53.390Z,68.28
2017-03-15T04:06:18.998Z,68.08
2017-03-15T04:06:44.573Z,67.96
2017-03-15T04:07:10.122Z,68.08
2017-03-15T04:07:35.696Z,68.18
2017-03-15T04:08:01.266Z,68.08
2017-03-15T04:08:26.820Z,68.15
2017-03-15T04:08:52.421Z,68.15
2017-03-15T04:09:17.988Z,68.28
2017-03-15T04:09:43.553Z,68.24
2017-03-15T04:10:09.249Z,68.28
2017-03-15T04:10:34.899Z,68.08
2017-03-15T04:11:00.476Z,68.15
2017-03-15T04:11:26.086Z,68.15
2017-03-15T04:11:51.661Z,68.18
2017-03-15T04:12:17.216Z,68.08
2017-03-15T04:12:42.781Z,68.28
2017-03-15T04:13:08.405Z,68.28
2017-03-15T04:13:33.960Z,68.28
2017-03-15T04:13:59.496Z,68.08
2017-03-15T04:14:25.053Z,68.28
2017-03-15T04:14:50.612Z,68.28
2017-03-15T04:15:16.168Z,68.18
2017-03-15T04:15:41.740Z,68.08
2017-03-15T04:16:07.392Z,68.08
2017-03-15T04:16:32.951Z,68.08
2017-03-15T04:16:58.521Z,68.08
2017-03-15T04:17:24.079Z,68.05
2017-03-15T04:17:49.634Z,68.24
2017-03-15T04:19:03.392Z,68.28
2017-03-15T04:19:28.971Z,68.08
2017-03-15T04:19:54.531Z,68.28
2017-03-15T04:20:20.089Z,68.24
2017-03-15T04:20:45.662Z,68.05
2017-03-15T04:21:11.243Z,68.18
2017-03-15T04:21:36.808Z,68.24
2017-03-15T04:22:02.408Z,68.15
2017-03-15T04:22:27.959Z,68.08
2017-03-15T04:22:53.529Z,68.24
2017-03-15T04:23:19.215Z,67.99
2017-03-15T04:23:44.839Z,68.15
2017-03-15T04:24:10.411Z,68.18
2017-03-15T04:24:35.971Z,68.18
2017-03-15T04:25:01.540Z,68.28
2017-03-15T04:25:27.111Z,68.24
2017-03-15T04:25:52.689Z,68.08
2017-03-15T04:26:18.247Z,68.76
2017-03-15T04:26:43.821Z,68.73
2017-03-15T04:27:09.409Z,68.53
2017-03-15T04:27:34.981Z,68.66
2017-03-15T04:28:00.536Z,68.66
2017-03-15T04:28:26.108Z,68.37
2017-03-15T04:28:51.676Z,68.53
2017-03-15T04:29:17.245Z,68.57
2017-03-15T04:29:42.824Z,68.57
2017-03-15T04:30:08.412Z,68.34
2017-03-15T04:30:34.108Z,68.73
2017-03-15T04:30:59.687Z,68.63
2017-03-15T04:31:25.262Z,68.47
2017-03-15T04:31:50.928Z,68.76
2017-03-15T04:32:16.491Z,68.91
2017-03-15T04:32:42.190Z,69.05
2017-03-15T04:33:07.797Z,68.66
2017-03-15T04:33:33.355Z,68.66
2017-03-15T04:33:58.904Z,68.63
2017-03-15T04:34:24.477Z,68.76
2017-03-15T04:34:50.048Z,68.85
2017-03-15T04:35:15.607Z,68.85
2017-03-15T04:35:41.165Z,68.73
2017-03-15T04:36:06.713Z,68.66
2017-03-15T04:36:32.260Z,68.76
2017-03-15T04:36:57.821Z,68.73
2017-03-15T04:37:23.348Z,68.63
2017-03-15T04:38:31.982Z,68.63
2017-03-15T04:38:57.548Z,68.66
2017-03-15T04:39:23.085Z,68.47
2017-03-15T04:39:48.632Z,68.47
2017-03-15T04:40:14.171Z,68.66
2017-03-15T04:40:39.786Z,68.34
2017-03-15T04:41:05.348Z,68.95
2017-03-15T04:41:30.922Z,68.82
2017-03-15T04:41:56.553Z,69.05
2017-03-15T04:42:22.099Z,69.24
2017-03-15T04:42:47.680Z,68.82
2017-03-15T04:43:13.511Z,69.14
2017-03-15T04:43:39.078Z,69.2
2017-03-15T04:44:04.652Z,68.76
2017-03-15T04:44:30.251Z,68.73
2017-03-15T04:44:55.869Z,68.95
2017-03-15T04:45:21.431Z,69.53
2017-03-15T04:45:46.987Z,69.24
2017-03-15T04:46:12.571Z,69.53
2017-03-15T04:46:38.130Z,69.34
2017-03-15T04:47:03.770Z,69.4
2017-03-15T04:47:29.483Z,69.53
2017-03-15T04:47:55.052Z,69.53
2017-03-15T04:48:20.617Z,69.59
2017-03-15T04:48:46.171Z,69.62
2017-03-15T04:49:11.856Z,69.53
2017-03-15T04:49:37.427Z,69.43
2017-03-15T04:50:03.001Z,69.43
2017-03-15T04:50:28.569Z,69.3
2017-03-15T04:50:54.140Z,69.14
2017-03-15T04:51:19.701Z,69.34
2017-03-15T04:51:45.259Z,69.4
2017-03-15T04:52:10.821Z,69.24
2017-03-15T04:52:36.369Z,69.2
2017-03-15T04:53:01.920Z,68.95
2017-03-15T04:53:27.481Z,69.2
2017-03-15T04:53:53.066Z,69.01
2017-03-15T04:54:18.712Z,69.34
2017-03-15T04:54:44.273Z,69.43
2017-03-15T04:55:09.831Z,69.53
2017-03-15T04:55:35.394Z,69.62
2017-03-15T04:56:00.958Z,69.34
2017-03-15T04:56:26.697Z,69.59
2017-03-15T04:56:52.251Z,69.72
2017-03-15T04:57:17.816Z,69.24
2017-03-15T04:57:43.400Z,69.43
2017-03-15T04:58:09.009Z,69.34
2017-03-15T04:58:34.584Z,69.49
2017-03-15T04:59:00.126Z,69.49
2017-03-15T04:59:25.680Z,69.62
2017-03-15T04:59:51.219Z,69.43
2017-03-15T05:00:16.756Z,69.72
2017-03-15T05:00:42.294Z,69.59
2017-03-15T05:01:07.850Z,69.62
2017-03-15T05:01:33.421Z,69.34
2017-03-15T05:01:58.981Z,69.24
2017-03-15T05:02:24.587Z,69.24
2017-03-15T05:02:50.141Z,69.34
2017-03-15T05:03:15.692Z,69.34
2017-03-15T05:03:41.253Z,69.49
2017-03-15T05:04:06.820Z,69.4
2017-03-15T05:04:32.382Z,69.2
2017-03-15T05:04:57.932Z,69.11
2017-03-15T05:05:23.471Z,69.53
2017-03-15T05:05:49.058Z,69.24
2017-03-15T05:06:14.710Z,69.62
2017-03-15T05:06:40.250Z,69.14
2017-03-15T05:07:05.786Z,69.14
2017-03-15T05:07:31.316Z,69.4
2017-03-15T05:07:56.881Z,69.43
2017-03-15T05:08:22.992Z,69.43
2017-03-15T05:08:48.549Z,69.53
2017-03-15T05:09:14.092Z,69.49
2017-03-15T05:10:12.626Z,69.78
2017-03-15T05:10:38.180Z,69.34
2017-03-15T05:11:03.739Z,69.62
2017-03-15T05:11:29.306Z,69.72
2017-03-15T05:11:54.867Z,69.87
2017-03-15T05:12:20.422Z,69.78
2017-03-15T05:12:46.032Z,69.62
2017-03-15T05:13:11.582Z,69.87
2017-03-15T05:13:37.158Z,69.91
2017-03-15T05:14:02.866Z,69.91
2017-03-15T05:14:28.431Z,70.01
2017-03-15T05:14:54.000Z,70.01
2017-03-15T05:15:19.567Z,69.72
2017-03-15T05:15:45.143Z,69.72
2017-03-15T05:16:10.701Z,69.68
2017-03-15T05:16:36.345Z,70.07
2017-03-15T05:17:01.908Z,69.78
2017-03-15T05:17:27.466Z,70.1
2017-03-15T05:17:53.031Z,69.81
2017-03-15T05:18:18.599Z,69.72
2017-03-15T05:18:44.155Z,69.72
2017-03-15T05:19:09.817Z,69.53
2017-03-15T05:19:35.380Z,69.62
2017-03-15T05:20:00.941Z,69.62
2017-03-15T05:20:26.611Z,69.53
2017-03-15T05:20:52.169Z,69.78
2017-03-15T05:21:17.732Z,69.53
2017-03-15T05:21:43.273Z,69.78
2017-03-15T05:22:08.845Z,69.53
2017-03-15T05:22:34.402Z,69.62
2017-03-15T05:23:00.022Z,69.62
2017-03-15T05:23:25.579Z,69.91
2017-03-15T05:23:51.138Z,69.97
2017-03-15T05:24:16.780Z,69.78
2017-03-15T05:24:42.341Z,69.53
2017-03-15T05:25:07.891Z,69.87
2017-03-15T05:25:33.463Z,70.1
2017-03-15T05:25:59.014Z,70.01
2017-03-15T05:26:24.608Z,69.97
2017-03-15T05:26:50.168Z,69.87
2017-03-15T05:27:15.723Z,69.78
2017-03-15T05:27:41.296Z,69.78
2017-03-15T05:28:06.911Z,69.91
2017-03-15T05:28:32.432Z,69.81
2017-03-15T05:28:57.997Z,69.91
2017-03-15T05:29:23.545Z,69.62
2017-03-15T05:29:49.116Z,70.01
2017-03-15T05:30:14.679Z,70.01
2017-03-15T05:30:40.233Z,69.68
2017-03-15T05:31:05.797Z,69.72
2017-03-15T05:31:31.369Z,69.78
2017-03-15T05:31:56.930Z,69.91
2017-03-15T05:32:22.496Z,69.91
2017-03-15T05:32:48.090Z,69.72
2017-03-15T05:33:13.636Z,69.78
2017-03-15T05:33:39.180Z,69.43
2017-03-15T05:34:04.731Z,69.43
2017-03-15T05:34:30.337Z,69.59
2017-03-15T05:34:55.916Z,69.24
2017-03-15T05:35:21.523Z,69.3
2017-03-15T05:35:47.095Z,68.73
2017-03-15T05:36:12.696Z,69.62
2017-03-15T05:36:38.267Z,68.95
2017-03-15T05:37:03.837Z,68.73
2017-03-15T05:37:29.405Z,69.14
2017-03-15T05:37:54.981Z,68.66
2017-03-15T05:38:20.538Z,68.63
2017-03-15T05:38:46.146Z,68.57
2017-03-15T05:39:11.693Z,68.44
2017-03-15T05:39:37.255Z,68.63
2017-03-15T05:40:02.898Z,68.66
2017-03-15T05:40:28.480Z,68.76
2017-03-15T05:40:54.041Z,68.66
2017-03-15T05:41:19.697Z,68.57
2017-03-15T05:41:45.252Z,68.53
2017-03-15T05:42:10.819Z,68.66
2017-03-15T05:42:36.440Z,68.85
2017-03-15T05:43:02.014Z,68.76
2017-03-15T05:43:27.537Z,68.76
2017-03-15T05:43:53.090Z,68.76
2017-03-15T05:44:18.675Z,69.05
2017-03-15T05:44:44.230Z,68.82
2017-03-15T05:45:10.481Z,68.66
2017-03-15T05:45:36.104Z,68.85
2017-03-15T05:46:01.647Z,68.44
2017-03-15T05:46:27.202Z,68.44
2017-03-15T05:46:52.798Z,68.85
2017-03-15T05:47:18.387Z,68.66
2017-03-15T05:47:43.927Z,68.82
2017-03-15T05:48:09.511Z,68.85
2017-03-15T05:48:35.078Z,68.73
2017-03-15T05:49:00.701Z,68.66
2017-03-15T05:49:26.261Z,68.76
2017-03-15T05:49:52.708Z,68.63
2017-03-15T05:50:18.288Z,68.66
2017-03-15T05:50:43.902Z,68.66
2017-03-15T05:51:09.590Z,68.57
2017-03-15T05:51:35.161Z,68.47
2017-03-15T05:52:00.732Z,68.66
2017-03-15T05:52:26.290Z,68.57
2017-03-15T05:52:51.851Z,68.57
2017-03-15T05:53:17.425Z,68.57
2017-03-15T05:53:43.021Z,68.73
2017-03-15T05:54:08.639Z,68.47
2017-03-15T05:54:34.231Z,68.57
2017-03-15T05:54:59.851Z,68.53
2017-03-15T05:55:25.420Z,68.66
2017-03-15T05:55:50.985Z,68.47
2017-03-15T05:56:16.573Z,69.24
2017-03-15T05:56:42.139Z,68.66
2017-03-15T05:57:07.714Z,68.66
2017-03-15T05:57:33.273Z,68.57
2017-03-15T05:57:58.841Z,68.66
2017-03-15T05:58:24.407Z,68.47
2017-03-15T05:58:50.039Z,68.47
2017-03-15T05:59:15.599Z,68.76
2017-03-15T05:59:41.242Z,68.66
2017-03-15T06:00:06.809Z,68.66
2017-03-15T06:00:32.372Z,68.53
2017-03-15T06:00:57.940Z,68.76
2017-03-15T06:01:23.519Z,68.76
2017-03-15T06:01:49.170Z,68.82
2017-03-15T06:02:14.766Z,68.76
2017-03-15T06:02:40.362Z,69.05
2017-03-15T06:03:05.968Z,68.66
2017-03-15T06:03:31.540Z,68.57
2017-03-15T06:03:57.101Z,68.63
2017-03-15T06:04:22.681Z,68.66
2017-03-15T06:04:48.247Z,69.05
2017-03-15T06:05:13.871Z,69.01
2017-03-15T06:05:39.438Z,68.95
2017-03-15T06:06:04.994Z,69.01
2017-03-15T06:06:30.630Z,68.53
2017-03-15T06:06:56.199Z,68.47
2017-03-15T06:07:21.762Z,68.47
2017-03-15T06:07:47.329Z,68.76
2017-03-15T06:08:12.905Z,68.37
2017-03-15T06:08:38.473Z,68.66
2017-03-15T06:09:04.142Z,68.44
2017-03-15T06:09:29.717Z,68.66
2017-03-15T06:09:55.300Z,68.66
2017-03-15T06:10:20.863Z,68.57
2017-03-15T06:10:46.440Z,68.47
2017-03-15T06:11:12.014Z,68.47
2017-03-15T06:11:37.577Z,68.66
2017-03-15T06:12:03.199Z,68.57
2017-03-15T06:12:28.771Z,68.82
2017-03-15T06:12:54.421Z,68.85
2017-03-15T06:13:19.990Z,68.18
2017-03-15T06:13:45.553Z,68.28
2017-03-15T06:14:11.169Z,68.18
2017-03-15T06:14:36.769Z,68.28
2017-03-15T06:15:02.343Z,68.57
2017-03-15T06:15:27.912Z,68.24
2017-03-15T06:15:53.491Z,68.28
2017-03-15T06:16:19.055Z,68.44
2017-03-15T06:16:44.628Z,68.47
2017-03-15T06:17:10.213Z,67.8
2017-03-15T06:17:35.770Z,67.7
2017-03-15T06:18:01.420Z,68.08
2017-03-15T06:18:26.988Z,67.9
2017-03-15T06:18:52.547Z,68.08
2017-03-15T06:19:18.130Z,67.99
2017-03-15T06:19:43.689Z,68.18
2017-03-15T06:20:09.261Z,68.37
2017-03-15T06:20:34.841Z,67.99
2017-03-15T06:21:00.399Z,67.8
2017-03-15T06:21:25.965Z,67.8
2017-03-15T06:21:51.587Z,67.41
2017-03-15T06:22:17.152Z,67.38
2017-03-15T06:22:42.722Z,67.61
2017-03-15T06:23:08.454Z,67.7
2017-03-15T06:23:34.017Z,67.67
2017-03-15T06:23:59.571Z,67.9
2017-03-15T06:24:25.136Z,67.61
2017-03-15T06:24:50.788Z,67.7
2017-03-15T06:25:16.357Z,67.03
2017-03-15T06:25:41.918Z,67.8
2017-03-15T06:26:07.530Z,67
2017-03-15T06:26:33.102Z,67.13
2017-03-15T06:26:58.651Z,67.13
2017-03-15T06:27:24.236Z,67.09
2017-03-15T06:28:17.535Z,66.8
2017-03-15T06:28:43.100Z,66.84
2017-03-15T06:29:08.661Z,66.84
2017-03-15T06:29:34.257Z,66.84
2017-03-15T06:29:59.810Z,67.03
2017-03-15T06:30:25.378Z,67.03
2017-03-15T06:30:50.923Z,66.84
2017-03-15T06:31:17.307Z,66.84
2017-03-15T06:31:42.870Z,66.93
2017-03-15T06:32:08.427Z,66.93
2017-03-15T06:32:33.967Z,66.64
2017-03-15T06:32:59.522Z,66.93
2017-03-15T06:33:25.094Z,66.9
2017-03-15T06:33:50.678Z,67.09
2017-03-15T06:34:16.255Z,67.03
2017-03-15T06:34:41.807Z,66.23
2017-03-15T06:35:07.371Z,66.74
2017-03-15T06:35:32.949Z,66.36
2017-03-15T06:35:58.532Z,66.33
2017-03-15T06:36:24.208Z,67.22
2017-03-15T06:36:49.831Z,66.46
2017-03-15T06:37:15.401Z,66.71
2017-03-15T06:37:41.034Z,66.36
2017-03-15T06:38:06.643Z,66.93
2017-03-15T06:38:32.179Z,66.8
2017-03-15T06:38:57.720Z,66.46
2017-03-15T06:39:23.387Z,66.42
2017-03-15T06:39:49.512Z,66.64
2017-03-15T06:40:15.073Z,66.93
2017-03-15T06:40:40.738Z,66.52
2017-03-15T06:41:06.305Z,66.33
2017-03-15T06:41:31.870Z,66.74
2017-03-15T06:41:57.502Z,66.71
2017-03-15T06:42:23.695Z,66.36
2017-03-15T06:42:49.271Z,66.36
2017-03-15T06:43:14.841Z,66.16
2017-03-15T06:43:40.410Z,66.33
2017-03-15T06:44:05.980Z,66.36
2017-03-15T06:44:31.590Z,66.33
2017-03-15T06:44:57.161Z,66.52
2017-03-15T06:45:22.729Z,66.46
2017-03-15T06:45:48.294Z,66.26
2017-03-15T06:46:13.857Z,66.16
2017-03-15T06:46:39.418Z,66.16
2017-03-15T06:47:04.969Z,66.16
2017-03-15T06:47:30.568Z,65.84
2017-03-15T06:47:56.112Z,66.07
2017-03-15T06:48:21.741Z,66.16
2017-03-15T06:48:47.289Z,66.16
2017-03-15T06:49:12.834Z,66.07
2017-03-15T06:49:38.381Z,66.23
2017-03-15T06:50:03.933Z,66.46
2017-03-15T06:50:29.587Z,65.94
2017-03-15T06:50:55.165Z,65.97
2017-03-15T06:51:20.734Z,66.16
2017-03-15T06:51:46.289Z,65.94
2017-03-15T06:52:11.865Z,65.97
2017-03-15T06:52:37.419Z,66.23
2017-03-15T06:53:02.979Z,66.26
2017-03-15T06:53:28.551Z,66.03
2017-03-15T06:53:54.105Z,66.07
2017-03-15T06:54:19.744Z,66.13
2017-03-15T06:54:45.334Z,65.97
2017-03-15T06:55:10.879Z,66.36
2017-03-15T06:55:36.498Z,66.16
2017-03-15T06:56:02.110Z,65.97
2017-03-15T06:56:27.720Z,66.36
2017-03-15T06:56:53.280Z,65.94
2017-03-15T06:57:18.890Z,65.97
2017-03-15T06:57:44.477Z,65.84
2017-03-15T06:58:10.065Z,65.69
2017-03-15T06:58:35.755Z,65.75
2017-03-15T06:59:01.324Z,65.97
2017-03-15T06:59:26.870Z,66.16
2017-03-15T06:59:52.420Z,66.07
2017-03-15T07:00:17.989Z,66.16
2017-03-15T07:01:21.482Z,65.78
2017-03-15T07:01:47.052Z,65.97
2017-03-15T07:02:12.596Z,65.69
2017-03-15T07:02:38.162Z,65.78
2017-03-15T07:03:03.733Z,66.46
2017-03-15T07:03:29.286Z,66.07
2017-03-15T07:03:54.852Z,66.03
2017-03-15T07:04:20.413Z,66.07
2017-03-15T07:04:45.981Z,66.33
2017-03-15T07:05:11.545Z,65.88
2017-03-15T07:05:37.109Z,65.78
2017-03-15T07:06:02.678Z,65.78
2017-03-15T07:06:28.263Z,66.16
2017-03-15T07:06:53.813Z,66.07
2017-03-15T07:07:19.375Z,65.84
2017-03-15T07:07:45.079Z,65.88
2017-03-15T07:08:10.657Z,65.97
2017-03-15T07:08:36.214Z,65.94
2017-03-15T07:09:01.819Z,66.23
2017-03-15T07:09:27.375Z,66.07
2017-03-15T07:09:53.010Z,65.94
2017-03-15T07:10:18.623Z,65.97
2017-03-15T07:10:44.190Z,65.88
2017-03-15T07:11:09.776Z,65.97
2017-03-15T07:11:35.322Z,65.97
2017-03-15T07:12:00.880Z,65.97
2017-03-15T07:12:26.472Z,66.07
2017-03-15T07:12:52.094Z,65.84
2017-03-15T07:13:17.636Z,66.07
2017-03-15T07:13:43.172Z,65.94
2017-03-15T07:14:08.736Z,66.07
2017-03-15T07:14:34.271Z,66.07
2017-03-15T07:14:59.809Z,66.16
2017-03-15T07:15:25.348Z,65.84
2017-03-15T07:15:50.893Z,65.94
2017-03-15T07:16:16.451Z,65.94
2017-03-15T07:16:41.999Z,66.16
2017-03-15T07:17:07.552Z,65.97
2017-03-15T07:17:33.096Z,66.13
2017-03-15T07:17:58.651Z,66.03
2017-03-15T07:18:24.207Z,66.16
2017-03-15T07:18:49.868Z,66.03
2017-03-15T07:19:15.433Z,65.94
2017-03-15T07:19:41.048Z,66.13
2017-03-15T07:20:06.672Z,66.13
2017-03-15T07:20:32.235Z,65.97
2017-03-15T07:20:57.873Z,66.26
2017-03-15T07:21:23.434Z,66.23
2017-03-15T07:21:49.002Z,66.07
2017-03-15T07:22:14.579Z,66.13
2017-03-15T07:22:40.132Z,66.33
2017-03-15T07:23:05.732Z,66.23
2017-03-15T07:23:31.257Z,66.36
2017-03-15T07:23:56.833Z,66.33
2017-03-15T07:24:22.395Z,66.42
2017-03-15T07:24:48.031Z,66.33
2017-03-15T07:25:13.601Z,66.71
2017-03-15T07:25:39.181Z,66.42
2017-03-15T07:26:04.741Z,66.71
2017-03-15T07:26:30.309Z,66.33
2017-03-15T07:26:55.873Z,66.42
2017-03-15T07:27:21.430Z,66.61
2017-03-15T07:28:29.407Z,66.33
2017-03-15T07:30:32.330Z,66.33
2017-03-15T07:30:57.907Z,66.71
2017-03-15T07:31:23.489Z,66.71
2017-03-15T07:31:49.070Z,66.74
2017-03-15T07:32:14.633Z,66.33
2017-03-15T07:32:40.203Z,66.61
2017-03-15T07:33:05.800Z,66.52
2017-03-15T07:33:31.360Z,66.8
2017-03-15T07:33:56.913Z,66.71
2017-03-15T07:34:22.607Z,67.03
2017-03-15T07:34:48.191Z,66.9
2017-03-15T07:35:13.751Z,66.84
2017-03-15T07:35:39.352Z,66.52
2017-03-15T07:36:05.011Z,66.42
2017-03-15T07:36:30.571Z,67
2017-03-15T07:36:56.143Z,66.8
2017-03-15T07:37:21.851Z,67.09
2017-03-15T07:37:47.402Z,66.52
2017-03-15T07:38:12.963Z,67.09
2017-03-15T07:38:38.541Z,66.61
2017-03-15T07:39:04.151Z,66.71
2017-03-15T07:39:29.706Z,66.23
2017-03-15T07:39:55.276Z,66.42
2017-03-15T07:40:20.820Z,66.33
2017-03-15T07:40:46.381Z,66.42
2017-03-15T07:41:11.967Z,66.42
2017-03-15T07:41:37.530Z,66.33
2017-03-15T07:42:03.107Z,66.71
2017-03-15T07:42:28.670Z,66.61
2017-03-15T07:42:54.233Z,66.33
2017-03-15T07:43:19.810Z,66.9
2017-03-15T07:43:45.381Z,66.13
2017-03-15T07:44:10.940Z,66.52
2017-03-15T07:44:36.599Z,67.19
2017-03-15T07:45:02.178Z,66.33
2017-03-15T07:45:27.734Z,66.42
2017-03-15T07:45:53.299Z,67.09
2017-03-15T07:46:18.872Z,66.33
2017-03-15T07:46:44.449Z,66.33
2017-03-15T07:47:10.018Z,66.9
2017-03-15T07:47:35.589Z,66.36
2017-03-15T07:48:01.156Z,66.33
2017-03-15T07:48:26.819Z,66.42
2017-03-15T07:48:52.369Z,66.42
2017-03-15T07:49:17.938Z,66.42
2017-03-15T07:49:43.509Z,66.42
2017-03-15T07:50:09.087Z,66.42
2017-03-15T07:50:34.664Z,66.9
2017-03-15T07:51:00.240Z,66.52
2017-03-15T07:51:25.799Z,66.23
2017-03-15T07:51:51.418Z,66.13
2017-03-15T07:52:16.979Z,66.42
2017-03-15T07:52:42.540Z,66.13
2017-03-15T07:53:08.098Z,66.52
2017-03-15T07:53:33.676Z,66.13
2017-03-15T07:53:59.230Z,66.33
2017-03-15T07:54:24.789Z,66.33
2017-03-15T07:54:50.361Z,66.23
2017-03-15T07:55:15.958Z,66.9
2017-03-15T07:55:41.519Z,66.33
2017-03-15T07:56:07.109Z,66.33
2017-03-15T07:56:32.701Z,66.13
2017-03-15T07:56:58.248Z,66.33
2017-03-15T07:57:23.806Z,66.8
2017-03-15T07:57:49.373Z,66.33
2017-03-15T07:58:14.941Z,66.13
2017-03-15T07:58:40.492Z,66.33
2017-03-15T07:59:06.060Z,66.23
2017-03-15T07:59:31.623Z,66.42
2017-03-15T07:59:57.183Z,66.33
2017-03-15T08:00:22.785Z,66.52
2017-03-15T08:00:48.362Z,66.52
2017-03-15T08:01:14.089Z,66.52
2017-03-15T08:01:39.640Z,66.23
2017-03-15T08:02:05.214Z,66.71
2017-03-15T08:02:30.854Z,66.23
2017-03-15T08:02:56.464Z,66.23
2017-03-15T08:03:22.025Z,66.33
2017-03-15T08:03:47.670Z,66.52
2017-03-15T08:04:13.265Z,66.23
2017-03-15T08:04:38.832Z,66.52
2017-03-15T08:05:04.395Z,66.23
2017-03-15T08:05:29.988Z,66.33
2017-03-15T08:05:55.533Z,66.42
2017-03-15T08:06:21.094Z,66.52
2017-03-15T08:06:46.640Z,66.8
2017-03-15T08:07:12.238Z,66.42
2017-03-15T08:07:37.824Z,66.42
2017-03-15T08:08:03.392Z,66.8
2017-03-15T08:08:28.951Z,66.8
2017-03-15T08:08:54.675Z,66.71
2017-03-15T08:09:20.231Z,66.61
2017-03-15T08:09:45.799Z,66.42
2017-03-15T08:10:11.366Z,66.61
2017-03-15T08:10:37.048Z,66.71
2017-03-15T08:11:02.615Z,66.42
2017-03-15T08:11:28.168Z,66.61
2017-03-15T08:11:53.727Z,66.42
2017-03-15T08:12:19.299Z,66.61
2017-03-15T08:12:44.983Z,66.61
2017-03-15T08:13:10.549Z,66.61
2017-03-15T08:13:36.121Z,66.42
2017-03-15T08:14:01.682Z,66.71
2017-03-15T08:14:27.231Z,66.52
2017-03-15T08:14:52.791Z,66.61
2017-03-15T08:15:18.384Z,66.71
2017-03-15T08:15:44.018Z,66.52
2017-03-15T08:16:09.579Z,66.61
2017-03-15T08:16:35.148Z,66.61
2017-03-15T08:17:00.719Z,67
2017-03-15T08:17:26.378Z,66.61
2017-03-15T08:17:51.934Z,66.61
2017-03-15T08:18:17.497Z,67
2017-03-15T08:18:43.097Z,66.8
2017-03-15T08:19:08.657Z,66.61
2017-03-15T08:19:34.231Z,66.71
2017-03-15T08:19:59.800Z,66.71
2017-03-15T08:20:25.371Z,67.09
2017-03-15T08:20:50.935Z,66.61
2017-03-15T08:21:16.507Z,66.61
2017-03-15T08:21:42.043Z,66.33
2017-03-15T08:22:07.602Z,66.8
2017-03-15T08:22:33.151Z,67.09
2017-03-15T08:22:58.775Z,66.71
2017-03-15T08:23:24.341Z,67
2017-03-15T08:23:50.614Z,66.8
2017-03-15T08:24:16.173Z,66.61
2017-03-15T08:24:41.726Z,66.8
2017-03-15T08:25:07.295Z,67.09
2017-03-15T08:25:33.672Z,66.8
2017-03-15T08:25:59.236Z,66.33
2017-03-15T08:26:24.799Z,66.8
2017-03-15T08:26:50.371Z,66.71
2017-03-15T08:27:15.926Z,66.8
2017-03-15T08:27:41.478Z,66.8
2017-03-15T08:28:07.022Z,66.71
2017-03-15T08:28:32.614Z,66.61
2017-03-15T08:28:58.182Z,66.71
2017-03-15T08:29:23.752Z,67.09
2017-03-15T08:29:49.363Z,66.8
2017-03-15T08:30:14.933Z,66.9
2017-03-15T08:30:40.536Z,66.9
2017-03-15T08:31:06.204Z,67.29
2017-03-15T08:31:31.761Z,66.71
2017-03-15T08:31:57.333Z,66.9
2017-03-15T08:32:22.969Z,66.9
2017-03-15T08:32:48.554Z,66.9
2017-03-15T08:33:14.125Z,66.9
2017-03-15T08:33:39.830Z,67.09
2017-03-15T08:34:05.386Z,66.8
2017-03-15T08:34:30.980Z,66.9
2017-03-15T08:34:56.555Z,66.9
2017-03-15T08:35:22.172Z,66.9
2017-03-15T08:35:47.830Z,67
2017-03-15T08:36:13.334Z,67.09
2017-03-15T08:36:38.883Z,66.9
2017-03-15T08:37:04.455Z,66.9
2017-03-15T08:37:30.029Z,66.9
2017-03-15T08:37:55.587Z,66.9
2017-03-15T08:38:21.148Z,66.8
2017-03-15T08:38:46.759Z,67
2017-03-15T08:39:12.340Z,67.09
2017-03-15T08:39:38.791Z,67.09
2017-03-15T08:40:04.391Z,67
2017-03-15T08:40:29.951Z,66.9
2017-03-15T08:40:55.508Z,67.09
2017-03-15T08:41:21.078Z,66.61
2017-03-15T08:41:46.630Z,67.09
2017-03-15T08:42:12.212Z,66.9
2017-03-15T08:42:37.780Z,66.9
2017-03-15T08:43:03.348Z,67
2017-03-15T08:43:28.933Z,67
2017-03-15T08:43:54.470Z,66.71
2017-03-15T08:44:20.047Z,66.71
2017-03-15T08:44:45.597Z,66.61
2017-03-15T08:45:11.160Z,66.71
2017-03-15T08:45:36.854Z,66.8
2017-03-15T08:46:02.467Z,66.8
2017-03-15T08:46:28.031Z,66.8
2017-03-15T08:46:53.596Z,66.71
2017-03-15T08:47:19.229Z,66.71
2017-03-15T08:47:44.782Z,66.8
2017-03-15T08:48:10.352Z,66.8
2017-03-15T08:48:35.904Z,66.8
2017-03-15T08:49:01.499Z,66.8
2017-03-15T08:49:27.060Z,66.8
2017-03-15T08:49:52.625Z,66.8
2017-03-15T08:50:18.272Z,66.9
2017-03-15T08:50:43.844Z,66.8
2017-03-15T08:51:10.420Z,66.8
2017-03-15T08:51:35.982Z,67.29
2017-03-15T08:52:01.546Z,67
2017-03-15T08:52:27.117Z,66.9
2017-03-15T08:52:52.671Z,67
2017-03-15T08:53:18.237Z,67
2017-03-15T08:53:43.799Z,67.09
2017-03-15T08:54:09.352Z,67
2017-03-15T08:54:34.914Z,66.9
2017-03-15T08:55:00.487Z,67.09
2017-03-15T08:55:26.207Z,67.09
2017-03-15T08:55:51.776Z,67
2017-03-15T08:56:17.378Z,66.9
2017-03-15T08:56:42.964Z,66.8
2017-03-15T08:57:08.528Z,67
2017-03-15T08:57:34.082Z,66.9
2017-03-15T08:57:59.657Z,67
2017-03-15T08:58:25.216Z,66.9
2017-03-15T08:58:50.772Z,66.8
2017-03-15T08:59:16.334Z,66.9
2017-03-15T08:59:42.771Z,67.09
2017-03-15T09:00:07.457Z,67.09
2017-03-15T09:00:33.120Z,67.09
2017-03-15T09:00:58.683Z,67
2017-03-15T09:01:24.258Z,67.09
2017-03-15T09:01:49.976Z,67
2017-03-15T09:02:15.551Z,66.9
2017-03-15T09:02:41.101Z,66.9
2017-03-15T09:03:06.686Z,67
2017-03-15T09:03:32.422Z,67
2017-03-15T09:03:57.980Z,67.09
2017-03-15T09:04:24.293Z,67.09
2017-03-15T09:04:50.352Z,67.09
2017-03-15T09:05:15.939Z,66.9
2017-03-15T09:05:42.280Z,66.9
2017-03-15T09:06:07.105Z,67
2017-03-15T09:06:32.663Z,67
2017-03-15T09:06:58.209Z,66.9
2017-03-15T09:07:23.795Z,67
2017-03-15T09:07:49.328Z,66.9
2017-03-15T09:08:14.923Z,67
2017-03-15T09:08:40.475Z,67.09
2017-03-15T09:09:06.024Z,67
2017-03-15T09:09:31.591Z,67
2017-03-15T09:09:57.777Z,66.9
2017-03-15T09:10:23.381Z,67
2017-03-15T09:10:48.951Z,66.8
2017-03-15T09:11:14.499Z,67
2017-03-15T09:11:40.061Z,66.9
2017-03-15T09:12:05.617Z,66.8
2017-03-15T09:12:31.180Z,66.8
2017-03-15T09:12:56.885Z,66.8
2017-03-15T09:13:22.449Z,66.9
2017-03-15T09:13:48.029Z,66.8
2017-03-15T09:14:13.661Z,66.9
2017-03-15T09:14:39.249Z,66.8
2017-03-15T09:15:04.821Z,66.8
2017-03-15T09:15:30.388Z,66.9
2017-03-15T09:15:56.000Z,66.8
2017-03-15T09:16:21.551Z,66.8
2017-03-15T09:16:47.108Z,66.9
2017-03-15T09:17:12.665Z,66.8
2017-03-15T09:17:38.232Z,66.9
2017-03-15T09:18:03.909Z,66.9
2017-03-15T09:18:29.457Z,66.8
2017-03-15T09:18:55.012Z,66.8
2017-03-15T09:19:20.646Z,66.9
2017-03-15T09:19:46.211Z,66.8
2017-03-15T09:20:11.786Z,66.8
2017-03-15T09:20:37.448Z,66.8
2017-03-15T09:21:03.048Z,66.71
2017-03-15T09:21:28.810Z,66.9
2017-03-15T09:21:54.473Z,67
2017-03-15T09:22:20.037Z,66.8
2017-03-15T09:22:45.699Z,66.8
2017-03-15T09:23:11.289Z,66.71
2017-03-15T09:23:36.862Z,66.8
2017-03-15T09:24:02.416Z,66.61
2017-03-15T09:24:27.978Z,66.61
2017-03-15T09:24:53.550Z,66.61
2017-03-15T09:25:19.116Z,66.8
2017-03-15T09:25:44.672Z,66.8
2017-03-15T09:26:10.251Z,66.61
2017-03-15T09:26:35.831Z,66.8
2017-03-15T09:27:01.400Z,67
2017-03-15T09:27:26.965Z,66.61
2017-03-15T09:27:52.681Z,66.61
2017-03-15T09:28:18.242Z,67.09
2017-03-15T09:28:43.807Z,66.71
2017-03-15T09:29:09.379Z,67.09
2017-03-15T09:29:34.941Z,66.8
2017-03-15T09:30:00.508Z,66.8
2017-03-15T09:30:26.082Z,67.19
2017-03-15T09:30:51.650Z,67.09
2017-03-15T09:31:17.217Z,67
2017-03-15T09:34:12.886Z,67.19
2017-03-15T09:34:46.737Z,67
2017-03-15T09:35:12.310Z,67.09
2017-03-15T09:35:37.879Z,67
2017-03-15T09:36:03.442Z,66.8
2017-03-15T09:36:29.006Z,67.09
2017-03-15T09:36:54.612Z,66.9
2017-03-15T09:37:20.860Z,67.09
2017-03-15T09:37:46.432Z,66.8
2017-03-15T09:38:11.987Z,67
2017-03-15T09:38:37.629Z,67.09
2017-03-15T09:39:03.184Z,67.19
2017-03-15T09:39:28.772Z,67.09
2017-03-15T09:39:54.311Z,67.19
2017-03-15T09:40:19.995Z,67.29
2017-03-15T09:40:45.560Z,67.29
2017-03-15T09:41:49.065Z,67.19
2017-03-15T09:42:14.633Z,67.29